Time;durP1;ratioP1;P1;durP2;ratioP2;P2;SDS_P1;SDS_P2;PMS_P1;PMS_P2;Temp;Humidity;BMP_temperature;BMP_pressure;BME280_temperature;BME280_humidity;BME280_pressure;Samples;Min_cycle;Max_cycle;Signal;HPM_P1;HPM_P2
2022/01/30 00:00:00;;;;;;;1.50;1.40;;;;;;;8.33;100.00;99352.88;4900964;29;20191;-77
2022/01/30 00:02:34;;;;;;;1.40;1.30;;;;;;;8.33;100.00;99359.03;4902145;29;20190;-78
2022/01/30 00:05:01;;;;;;;1.47;1.37;;;;;;;8.38;100.00;99345.88;4885443;29;20303;-77
2022/01/30 00:07:28;;;;;;;1.33;1.23;;;;;;;8.35;100.00;99346.28;4885181;29;20277;-78
2022/01/30 00:09:55;;;;;;;1.40;1.23;;;;;;;8.08;100.00;99354.56;4885215;29;20492;-77
2022/01/30 00:12:32;;;;;;;1.90;1.23;;;;;;;8.20;100.00;99350.22;4900619;29;20202;-78
2022/01/30 00:14:59;;;;;;;1.10;1.10;;;;;;;8.38;100.00;99353.06;4885178;29;20190;-77
2022/01/30 00:17:33;;;;;;;1.27;1.10;;;;;;;8.33;100.00;99367.03;4898743;29;20194;-78
2022/01/30 00:20:05;;;;;;;1.30;1.20;;;;;;;8.36;100.00;99352.44;4885616;29;20178;-78
2022/01/30 00:25:03;;;;;;;2.23;1.30;;;;;;;8.44;100.00;99346.88;4885241;29;20289;-78
2022/01/30 00:27:46;;;;;;;1.50;1.30;;;;;;;8.40;100.00;99342.97;4886081;29;20206;-79
2022/01/30 00:30:15;;;;;;;1.50;1.40;;;;;;;8.28;100.00;99331.28;4887710;29;20184;-78
2022/01/30 00:32:42;;;;;;;1.47;1.37;;;;;;;8.44;100.00;99364.75;4868451;29;20713;-78
2022/01/30 00:35:29;;;;;;;1.40;1.30;;;;;;;8.42;100.00;99356.94;4885826;29;20341;-78
2022/01/30 00:37:56;;;;;;;2.00;1.30;;;;;;;8.30;100.00;99337.28;4883624;29;20195;-77
2022/01/30 00:40:33;;;;;;;1.50;1.40;;;;;;;8.43;100.00;99352.41;4884625;29;20205;-80
2022/01/30 00:43:00;;;;;;;1.37;1.10;;;;;;;8.35;100.00;99348.94;4898775;29;20266;-80
2022/01/30 00:45:27;;;;;;;1.67;1.47;;;;;;;8.29;100.00;99349.81;4898900;29;20500;-79
2022/01/30 00:47:54;;;;;;;1.73;1.10;;;;;;;8.24;100.00;99336.25;4884890;29;20198;-80
2022/01/30 00:50:21;;;;;;;1.83;1.30;;;;;;;8.38;100.00;99363.72;4884930;29;20240;-80
2022/01/30 00:52:53;;;;;;;1.40;1.27;;;;;;;8.30;100.00;99342.63;4869961;29;20239;-79
2022/01/30 00:55:25;;;;;;;1.60;1.40;;;;;;;8.24;100.00;99335.41;4885609;29;20415;-80
2022/01/30 00:57:52;;;;;;;1.90;1.50;;;;;;;8.16;100.00;99347.16;4885136;29;20750;-79
2022/01/30 01:00:19;;;;;;;1.67;1.20;;;;;;;8.15;100.00;99350.84;4884840;29;20229;-79
2022/01/30 01:02:46;;;;;;;1.40;1.30;;;;;;;8.17;100.00;99361.31;4885024;29;20198;-80
2022/01/30 01:05:14;;;;;;;3.37;1.50;;;;;;;8.29;100.00;99354.28;4871366;29;20262;-80
2022/01/30 01:07:45;;;;;;;1.53;1.30;;;;;;;8.17;100.00;99353.28;4888875;29;20202;-79
2022/01/30 01:10:31;;;;;;;1.20;1.20;;;;;;;8.17;100.00;99337.28;4920787;29;20178;-80
2022/01/30 01:13:11;;;;;;;2.27;1.33;;;;;;;8.24;100.00;99370.13;4888457;29;20194;-79
2022/01/30 01:23:50;;;;;;;1.40;1.30;;;;;;;8.26;100.00;99363.53;4905667;29;20645;-80
2022/01/30 01:26:19;;;;;;;1.30;1.20;;;;;;;8.15;100.00;99360.72;4888372;29;20230;-80
2022/01/30 01:28:46;;;;;;;1.83;1.33;;;;;;;8.19;100.00;99351.25;4904106;29;20194;-80
2022/01/30 01:31:13;;;;;;;1.30;1.20;;;;;;;7.99;100.00;99335.28;4888006;29;20206;-80
2022/01/30 01:33:56;;;;;;;1.50;1.00;;;;;;;8.04;100.00;99335.47;4873060;29;20187;-81
2022/01/30 01:36:24;;;;;;;1.57;1.30;;;;;;;8.09;100.00;99353.53;4890042;29;20259;-80
2022/01/30 01:38:51;;;;;;;1.40;1.10;;;;;;;8.05;100.00;99341.66;4903544;29;20198;-79
2022/01/30 01:41:21;;;;;;;1.30;1.20;;;;;;;8.02;100.00;99340.22;4887992;29;20221;-80
2022/01/30 01:43:49;;;;;;;3.17;1.30;;;;;;;8.02;100.00;99326.06;4888376;29;20239;-80
2022/01/30 01:46:22;;;;;;;2.27;1.40;;;;;;;8.10;100.00;99317.81;4872737;29;20197;-80
2022/01/30 01:48:51;;;;;;;1.63;1.27;;;;;;;7.99;100.00;99319.28;4888423;29;20549;-80
2022/01/30 01:51:24;;;;;;;1.67;1.40;;;;;;;7.89;100.00;99290.38;4887697;29;20206;-80
2022/01/30 01:53:53;;;;;;;2.07;1.27;;;;;;;7.91;100.00;99298.19;4887942;29;20216;-79
2022/01/30 01:56:20;;;;;;;1.30;1.20;;;;;;;7.92;100.00;99292.66;4887739;29;20220;-79
2022/01/30 01:58:52;;;;;;;1.93;1.10;;;;;;;7.91;100.00;99258.19;4903139;29;20591;-80
2022/01/30 02:01:51;;;;;;;1.40;1.17;;;;;;;8.00;100.00;99261.41;4888030;29;20502;-80
2022/01/30 02:04:20;;;;;;;1.30;1.20;;;;;;;8.01;100.00;99247.06;4888159;29;20203;-80
2022/01/30 02:06:49;;;;;;;2.23;1.20;;;;;;;8.03;100.00;99236.97;4887832;29;20191;-79
2022/01/30 02:09:16;;;;;;;1.47;1.13;;;;;;;7.97;100.00;99228.81;4887438;29;20202;-79
2022/01/30 02:11:46;;;;;;;1.67;1.20;;;;;;;8.10;100.00;99206.56;4872176;29;20972;-80
2022/01/30 02:14:25;;;;;;;1.20;1.10;;;;;;;8.15;100.00;99206.75;4903857;29;20574;-80
2022/01/30 02:27:57;;;;;;;0.73;0.73;;;;;;;8.31;100.00;99186.75;4870598;29;20247;-80
2022/01/30 02:30:29;;;;;;;1.67;1.00;;;;;;;8.39;100.00;99171.31;4868894;29;20587;-79
2022/01/30 02:32:57;;;;;;;1.37;0.80;;;;;;;8.42;100.00;99180.75;4868987;29;20293;-80
2022/01/30 02:35:24;;;;;;;1.00;0.67;;;;;;;8.43;100.00;99201.06;4868574;29;20565;-80
2022/01/30 02:37:53;;;;;;;1.17;0.83;;;;;;;8.40;100.00;99183.63;4883847;29;20282;-79
2022/01/30 02:40:21;;;;;;;1.73;0.80;;;;;;;8.27;100.00;99173.00;4868330;29;20214;-79
2022/01/30 02:42:52;;;;;;;0.77;0.70;;;;;;;8.37;100.00;99186.72;4883779;29;20210;-80
2022/01/30 02:45:21;;;;;;;1.30;0.67;;;;;;;8.37;100.00;99173.38;4868652;29;20198;-80
2022/01/30 02:53:31;;;;;;;1.03;0.80;;;;;;;8.37;100.00;99140.53;4816845;29;20197;-78
2022/01/30 02:55:58;;;;;;;0.70;0.70;;;;;;;8.61;100.00;99147.72;4812136;29;20225;-78
2022/01/30 02:58:24;;;;;;;0.60;0.60;;;;;;;8.58;100.00;99160.72;4839469;29;20202;-77
2022/01/30 03:00:51;;;;;;;0.60;0.60;;;;;;;8.56;100.00;99146.75;4868102;29;20281;-78
2022/01/30 03:03:19;;;;;;;0.70;0.60;;;;;;;8.47;100.00;99116.84;4867983;29;20485;-80
2022/01/30 03:05:47;;;;;;;0.63;0.60;;;;;;;8.53;100.00;99118.63;4867241;29;20531;-79
2022/01/30 03:08:13;;;;;;;0.83;0.50;;;;;;;8.53;100.00;99118.63;4868112;29;20443;-80
2022/01/30 03:10:40;;;;;;;0.63;0.57;;;;;;;8.58;100.00;99096.63;4867839;29;20187;-80
2022/01/30 03:13:07;;;;;;;0.90;0.70;;;;;;;8.50;100.00;99115.56;4867726;29;20250;-80
2022/01/30 03:15:35;;;;;;;0.60;0.60;;;;;;;8.45;100.00;99102.88;4883116;29;20253;-81
2022/01/30 03:18:02;;;;;;;0.60;0.60;;;;;;;8.48;100.00;99109.66;4867923;29;20215;-81
2022/01/30 03:20:29;;;;;;;0.53;0.50;;;;;;;8.49;100.00;99098.72;4867650;29;20187;-80
2022/01/30 03:22:56;;;;;;;0.60;0.53;;;;;;;8.39;100.00;99107.25;4871376;29;20294;-80
2022/01/30 03:25:25;;;;;;;0.73;0.60;;;;;;;8.43;100.00;99093.47;4870980;29;20214;-80
2022/01/30 03:27:55;;;;;;;0.93;0.50;;;;;;;8.36;100.00;99107.69;4886301;29;20733;-80
2022/01/30 03:30:30;;;;;;;1.00;0.67;;;;;;;8.36;100.00;99099.66;4887118;29;20509;-80
2022/01/30 03:33:00;;;;;;;1.10;0.60;;;;;;;8.39;100.00;99117.13;4902323;29;20238;-80
2022/01/30 03:35:28;;;;;;;0.50;0.50;;;;;;;8.37;100.00;99133.34;4886184;29;20198;-81
2022/01/30 03:37:55;;;;;;;0.60;0.60;;;;;;;8.43;100.00;99134.31;4870278;29;20458;-81
2022/01/30 03:40:22;;;;;;;0.50;0.50;;;;;;;8.46;100.00;99130.41;4901275;29;20201;-80
2022/01/30 03:42:49;;;;;;;0.60;0.60;;;;;;;8.54;100.00;99136.28;4885978;29;20200;-78
2022/01/30 03:45:16;;;;;;;0.60;0.60;;;;;;;8.65;100.00;99159.59;4885950;29;20202;-77
2022/01/30 03:47:43;;;;;;;0.63;0.60;;;;;;;8.60;100.00;99132.75;4885716;29;20666;-80
2022/01/30 03:50:15;;;;;;;0.50;0.50;;;;;;;8.63;100.00;99124.28;4886429;29;20213;-80
2022/01/30 03:52:45;;;;;;;2.10;0.50;;;;;;;8.57;100.00;99122.50;4886128;29;20194;-80
2022/01/30 03:55:14;;;;;;;2.50;0.50;;;;;;;8.77;100.00;99138.34;4870740;29;20198;-80
2022/01/30 03:57:41;;;;;;;0.70;0.70;;;;;;;8.73;100.00;99140.63;4885712;29;20214;-80
2022/01/30 04:00:08;;;;;;;0.50;0.50;;;;;;;8.70;100.00;99130.41;4886038;29;20183;-80
2022/01/30 04:02:44;;;;;;;0.67;0.50;;;;;;;8.64;100.00;99147.28;4888297;29;20194;-80
2022/01/30 04:05:12;;;;;;;0.50;0.50;;;;;;;8.68;100.00;99129.78;4870375;29;20222;-80
2022/01/30 04:07:41;;;;;;;1.00;0.53;;;;;;;8.80;100.00;99122.69;4885817;29;20591;-80
2022/01/30 04:10:20;;;;;;;0.57;0.50;;;;;;;8.89;100.00;99155.28;4873251;29;20602;-81
2022/01/30 04:13:06;;;;;;;0.40;0.40;;;;;;;8.93;100.00;99113.72;4917941;29;20650;-81
2022/01/30 04:15:51;;;;;;;0.50;0.50;;;;;;;8.99;100.00;99138.75;4903610;29;20597;-80
2022/01/30 04:18:52;;;;;;;0.90;0.50;;;;;;;9.00;100.00;99143.06;4889790;29;20193;-80
2022/01/30 04:21:27;;;;;;;1.13;0.40;;;;;;;9.00;100.00;99157.25;4886213;29;20262;-80
2022/01/30 04:24:10;;;;;;;0.40;0.40;;;;;;;8.94;100.00;99158.13;4887195;29;20631;-80
2022/01/30 04:27:03;;;;;;;0.40;0.40;;;;;;;8.83;100.00;99177.53;4902553;29;20210;-80
2022/01/30 04:29:56;;;;;;;0.40;0.40;;;;;;;8.70;100.00;99156.28;4901019;29;20206;-80
2022/01/30 04:32:43;;;;;;;0.50;0.50;;;;;;;8.61;100.00;99165.59;4890437;29;20238;-80
2022/01/30 04:35:31;;;;;;;0.70;0.50;;;;;;;8.70;100.00;99159.78;4871815;29;20598;-80
2022/01/30 05:03:23;;;;;;;0.40;0.40;;;;;;;8.05;100.00;99177.06;4881847;29;20190;-80
2022/01/30 05:05:44;;;;;;;0.50;0.40;;;;;;;7.86;100.00;99148.63;4869321;29;20199;-81
2022/01/30 05:08:18;;;;;;;0.40;0.40;;;;;;;7.74;100.00;99158.34;4868362;29;20275;-81
2022/01/30 05:11:14;;;;;;;1.93;0.50;;;;;;;7.64;100.00;99182.81;4877401;29;20804;-80
2022/01/30 05:13:52;;;;;;;0.67;0.50;;;;;;;7.81;100.00;99189.28;4883101;29;20468;-81
2022/01/30 05:16:38;;;;;;;0.50;0.50;;;;;;;7.66;100.00;99174.56;4868510;29;20533;-81
2022/01/30 05:19:14;;;;;;;0.43;0.30;;;;;;;7.59;100.00;99171.94;4897409;29;20195;-80
2022/01/30 05:22:06;;;;;;;0.40;0.40;;;;;;;7.42;100.00;99194.75;4856594;29;20724;-81
2022/01/30 05:24:37;;;;;;;0.30;0.30;;;;;;;7.37;100.00;99162.59;4851979;29;20234;-80
2022/01/30 05:27:14;;;;;;;0.70;0.40;;;;;;;7.36;100.00;99176.94;4867118;29;20211;-80
2022/01/30 05:29:41;;;;;;;1.97;0.47;;;;;;;7.41;100.00;99174.47;4866384;29;20245;-81
2022/01/30 05:32:11;;;;;;;1.00;0.50;;;;;;;7.47;100.00;99171.78;4882077;29;20580;-81
2022/01/30 05:35:04;;;;;;;0.40;0.40;;;;;;;7.56;100.00;99195.56;4863405;29;20207;-81
2022/01/30 05:37:54;;;;;;;0.60;0.50;;;;;;;7.54;100.00;99190.41;4883521;29;20301;-81
2022/01/30 05:40:40;;;;;;;0.73;0.60;;;;;;;7.71;100.00;99209.41;4870817;29;20198;-81
2022/01/30 05:43:40;;;;;;;1.10;0.80;;;;;;;7.75;100.00;99235.44;4885676;29;20195;-80
2022/01/30 05:46:38;;;;;;;0.90;0.70;;;;;;;7.82;100.00;99248.78;4868469;29;20226;-80
2022/01/30 05:49:32;;;;;;;2.00;0.60;;;;;;;7.85;100.00;99238.50;4858656;29;20194;-80
2022/01/30 05:52:16;;;;;;;1.13;0.70;;;;;;;7.72;100.00;99233.22;4869564;29;20509;-80
2022/01/30 05:55:06;;;;;;;1.07;0.70;;;;;;;7.67;100.00;99235.69;4880050;29;20203;-80
2022/01/30 05:57:33;;;;;;;1.17;0.53;;;;;;;7.71;100.00;99244.09;4869026;29;20223;-80
2022/01/30 06:00:01;;;;;;;1.17;0.50;;;;;;;7.64;100.00;99248.63;4884148;29;20630;-80
2022/01/30 06:02:48;;;;;;;0.97;0.70;;;;;;;7.51;100.00;99228.97;4887435;29;20184;-80
2022/01/30 06:05:17;;;;;;;1.30;0.60;;;;;;;7.41;100.00;99211.78;4868834;29;20596;-80
2022/01/30 06:07:55;;;;;;;1.63;0.60;;;;;;;7.39;100.00;99240.47;4868893;29;20195;-81
2022/01/30 06:10:27;;;;;;;1.90;0.73;;;;;;;7.50;100.00;99213.19;4885849;29;20188;-80
2022/01/30 06:12:54;;;;;;;0.90;0.70;;;;;;;7.37;100.00;99230.03;4869035;29;20282;-80
2022/01/30 06:15:21;;;;;;;1.93;0.90;;;;;;;7.38;96.76;99206.84;4868543;29;20207;-80
2022/01/30 06:17:53;;;;;;;2.60;0.90;;;;;;;7.48;94.23;99197.41;4883996;29;20226;-80
2022/01/30 06:20:38;;;;;;;1.67;0.90;;;;;;;7.43;93.18;99205.22;4886551;29;20206;-80
2022/01/30 06:23:28;;;;;;;2.77;1.20;;;;;;;7.44;94.03;99241.50;4886486;29;20225;-80
2022/01/30 06:26:13;;;;;;;1.73;0.80;;;;;;;7.33;94.92;99220.00;4886459;29;20198;-80
2022/01/30 06:28:59;;;;;;;1.57;1.00;;;;;;;7.31;94.95;99220.22;4886486;29;20331;-80
2022/01/30 06:31:44;;;;;;;2.83;0.97;;;;;;;7.23;97.21;99215.09;4886468;29;20198;-80
2022/01/30 06:34:29;;;;;;;0.90;0.70;;;;;;;7.26;95.83;99205.88;4886700;29;20198;-81
2022/01/30 06:37:32;;;;;;;2.70;0.90;;;;;;;7.31;96.40;99216.72;4861609;29;20236;-80
2022/01/30 06:40:22;;;;;;;2.20;0.87;;;;;;;7.34;97.45;99192.31;4879244;29;20207;-80
2022/01/30 06:43:15;;;;;;;2.73;1.07;;;;;;;7.26;95.65;99180.06;4872671;29;20199;-79
2022/01/30 06:46:17;;;;;;;2.20;0.87;;;;;;;7.35;95.60;99204.63;4856197;29;20207;-80
2022/01/30 06:49:19;;;;;;;1.83;0.90;;;;;;;7.41;93.49;99228.59;4917586;29;20309;-80
2022/01/30 06:52:24;;;;;;;1.37;0.73;;;;;;;7.50;93.82;99243.34;4841898;29;20204;-80
2022/01/30 06:55:11;;;;;;;1.90;0.87;;;;;;;7.52;96.17;99232.44;4832991;29;20220;-80
2022/01/30 06:57:58;;;;;;;2.50;1.10;;;;;;;7.71;93.95;99228.91;4831478;29;20234;-80
2022/01/30 07:00:40;;;;;;;2.37;1.00;;;;;;;7.66;94.70;99238.56;4900274;29;20191;-80
2022/01/30 07:03:27;;;;;;;3.30;1.10;;;;;;;7.77;92.22;99212.06;4857242;29;20282;-81
2022/01/30 07:06:18;;;;;;;2.87;1.00;;;;;;;7.71;95.82;99223.56;4883114;29;20195;-80
2022/01/30 07:08:44;;;;;;;4.10;1.40;;;;;;;7.92;91.52;99222.47;4883511;29;20595;-80
2022/01/30 07:11:12;;;;;;;2.67;1.30;;;;;;;7.90;94.03;99238.69;4883331;29;20201;-80
2022/01/30 07:13:40;;;;;;;3.60;1.40;;;;;;;7.89;98.05;99234.38;4868320;29;20195;-79
2022/01/30 07:16:11;;;;;;;2.37;1.30;;;;;;;7.91;100.00;99253.66;4899721;29;20552;-80
2022/01/30 07:18:38;;;;;;;3.13;1.47;;;;;;;7.82;100.00;99238.09;4867831;29;20215;-80
2022/01/30 07:21:07;;;;;;;4.47;1.40;;;;;;;7.69;100.00;99251.50;4868039;29;20202;-78
2022/01/30 07:23:34;;;;;;;2.60;1.40;;;;;;;7.49;100.00;99241.69;4883225;29;20223;-80
2022/01/30 07:26:01;;;;;;;3.80;1.30;;;;;;;7.44;100.00;99262.81;4882932;29;20187;-80
2022/01/30 07:28:28;;;;;;;2.63;1.20;;;;;;;7.42;100.00;99264.88;4867441;29;20206;-80
2022/01/30 07:30:55;;;;;;;3.10;1.20;;;;;;;7.28;100.00;99273.13;4867320;29;20495;-78
2022/01/30 07:33:23;;;;;;;2.30;1.10;;;;;;;7.34;100.00;99294.41;4852369;29;20201;-80
2022/01/30 07:35:52;;;;;;;2.13;1.00;;;;;;;7.24;100.00;99274.53;4899339;29;20196;-80
2022/01/30 07:38:21;;;;;;;1.87;1.00;;;;;;;7.15;100.00;99287.25;4867795;29;20210;-81
2022/01/30 07:40:48;;;;;;;1.73;1.10;;;;;;;7.24;100.00;99271.88;4867812;29;20193;-79
2022/01/30 07:43:15;;;;;;;1.80;0.97;;;;;;;7.38;100.00;99292.97;4867094;29;20610;-80
2022/01/30 07:45:52;;;;;;;2.33;1.00;;;;;;;7.23;100.00;99284.38;4868299;29;20296;-78
2022/01/30 07:48:19;;;;;;;2.70;0.70;;;;;;;7.16;100.00;99264.91;4867263;29;20195;-79
2022/01/30 07:50:45;;;;;;;2.80;0.70;;;;;;;7.26;100.00;99283.16;4882758;29;20201;-78
2022/01/30 07:53:12;;;;;;;2.63;0.90;;;;;;;7.11;100.00;99282.53;4867371;29;20198;-78
2022/01/30 07:55:39;;;;;;;2.53;0.63;;;;;;;7.06;100.00;99273.31;4866895;29;20198;-78
2022/01/30 07:58:06;;;;;;;2.37;0.80;;;;;;;7.11;100.00;99285.19;4899070;29;20289;-80
2022/01/30 08:00:33;;;;;;;1.67;0.70;;;;;;;7.11;100.00;99280.69;4882892;29;20532;-81
2022/01/30 08:02:59;;;;;;;2.50;0.83;;;;;;;7.14;100.00;99301.59;4866890;29;20198;-80
2022/01/30 08:05:26;;;;;;;3.03;0.80;;;;;;;7.11;100.00;99310.00;4882703;29;20294;-80
2022/01/30 08:07:53;;;;;;;2.37;0.97;;;;;;;7.16;100.00;99293.41;4867172;29;20187;-80
2022/01/30 08:10:21;;;;;;;2.37;0.80;;;;;;;7.24;99.52;99283.34;4866976;29;20553;-80
2022/01/30 08:12:47;;;;;;;2.90;1.10;;;;;;;7.27;100.00;99293.63;4866919;29;20211;-80
2022/01/30 08:15:14;;;;;;;2.17;1.20;;;;;;;7.28;100.00;99287.22;4881634;29;20506;-78
2022/01/30 08:17:41;;;;;;;2.63;1.20;;;;;;;7.24;100.00;99290.50;4898798;29;20211;-81
2022/01/30 08:20:09;;;;;;;3.47;1.03;;;;;;;7.35;96.36;99296.06;4882340;29;20191;-80
2022/01/30 08:22:44;;;;;;;2.47;1.03;;;;;;;7.43;91.68;99273.69;4882079;29;20199;-80
2022/01/30 08:25:10;;;;;;;2.93;1.20;;;;;;;7.46;92.38;99290.09;4882246;29;20189;-81
2022/01/30 08:27:38;;;;;;;3.27;1.30;;;;;;;7.61;88.93;99297.03;4882003;29;20191;-80
2022/01/30 08:30:06;;;;;;;2.83;1.00;;;;;;;7.56;89.00;99294.97;4882155;29;20266;-79
2022/01/30 08:32:41;;;;;;;2.57;1.20;;;;;;;7.60;84.83;99282.91;4866870;29;20283;-80
2022/01/30 08:35:09;;;;;;;3.77;1.30;;;;;;;7.71;80.06;99276.09;4882068;29;20188;-80
2022/01/30 08:37:36;;;;;;;4.07;1.13;;;;;;;7.76;81.46;99298.44;4882202;29;20217;-80
2022/01/30 08:40:05;;;;;;;2.70;0.93;;;;;;;7.86;80.37;99285.47;4882058;29;20193;-79
2022/01/30 08:42:32;;;;;;;1.83;0.90;;;;;;;7.94;79.91;99292.41;4866724;29;20227;-81
2022/01/30 08:44:58;;;;;;;2.77;1.30;;;;;;;8.13;83.78;99293.38;4866448;29;20624;-78
2022/01/30 08:47:26;;;;;;;2.97;1.00;;;;;;;8.16;86.46;99285.78;4866671;29;20600;-80
2022/01/30 08:49:53;;;;;;;2.73;1.10;;;;;;;8.09;87.27;99268.97;4882113;29;20193;-80
2022/01/30 08:52:19;;;;;;;3.60;1.10;;;;;;;8.08;85.31;99247.81;4882047;29;20191;-80
2022/01/30 08:54:49;;;;;;;3.07;1.20;;;;;;;8.18;85.92;99258.88;4898853;29;20187;-79
2022/01/30 08:57:17;;;;;;;3.17;1.20;;;;;;;8.22;84.79;99268.09;4882084;29;20194;-79
2022/01/30 08:59:44;;;;;;;1.97;1.10;;;;;;;8.22;85.78;99271.56;4881852;29;20206;-80
2022/01/30 09:02:11;;;;;;;3.37;1.27;;;;;;;8.30;84.65;99268.72;4866496;29;20211;-80
2022/01/30 09:04:37;;;;;;;3.20;1.30;;;;;;;8.31;84.45;99274.84;4866756;29;20263;-78
2022/01/30 09:07:04;;;;;;;3.67;1.20;;;;;;;8.32;85.28;99274.63;4881938;29;20254;-80
2022/01/30 09:09:31;;;;;;;2.83;1.27;;;;;;;8.44;84.06;99285.47;4866298;29;20191;-79
2022/01/30 09:11:58;;;;;;;3.43;1.10;;;;;;;8.64;82.08;99290.66;4866257;29;20294;-79
2022/01/30 09:14:26;;;;;;;4.80;1.57;;;;;;;8.89;81.54;99298.72;4880379;29;20198;-78
2022/01/30 09:16:53;;;;;;;2.97;1.17;;;;;;;8.88;79.28;99284.56;4864824;29;20203;-78
2022/01/30 09:19:36;;;;;;;3.33;1.20;;;;;;;9.08;78.91;99287.91;4868817;29;20241;-81
2022/01/30 09:22:02;;;;;;;2.03;1.17;;;;;;;9.21;77.35;99300.31;4897926;29;20191;-80
2022/01/30 09:24:29;;;;;;;2.60;1.03;;;;;;;9.31;73.25;99308.69;4866310;29;20694;-80
2022/01/30 09:26:56;;;;;;;3.57;1.27;;;;;;;9.49;72.54;99316.72;4884349;29;20197;-80
2022/01/30 09:29:22;;;;;;;3.60;1.13;;;;;;;9.44;71.19;99324.59;4869833;29;20191;-80
2022/01/30 09:32:09;;;;;;;3.87;1.10;;;;;;;9.37;73.69;99289.09;4887759;29;20498;-80
2022/01/30 09:34:36;;;;;;;2.40;1.03;;;;;;;9.53;74.28;99304.56;4869986;29;20671;-80
2022/01/30 09:37:04;;;;;;;4.20;1.23;;;;;;;9.64;71.48;99293.13;4885212;29;20234;-80
2022/01/30 09:39:31;;;;;;;2.87;1.23;;;;;;;9.73;72.84;99317.75;4901874;29;20294;-77
2022/01/30 09:41:59;;;;;;;2.60;1.40;;;;;;;9.58;69.21;99307.38;4885088;29;20235;-81
2022/01/30 09:44:26;;;;;;;2.90;1.10;;;;;;;9.42;68.39;99317.84;4885319;29;20183;-78
2022/01/30 09:46:53;;;;;;;3.03;1.00;;;;;;;9.49;67.12;99321.25;4884826;29;20199;-77
2022/01/30 09:49:25;;;;;;;3.63;0.93;;;;;;;9.54;67.86;99314.22;4869529;29;20183;-78
2022/01/30 09:51:53;;;;;;;2.57;1.23;;;;;;;9.46;66.38;99308.34;4885255;29;20180;-78
2022/01/30 09:54:20;;;;;;;3.73;1.00;;;;;;;9.46;68.79;99311.84;4901485;29;20209;-78
2022/01/30 09:56:47;;;;;;;3.00;1.00;;;;;;;9.61;65.91;99298.91;4884931;29;20195;-78
2022/01/30 09:59:14;;;;;;;2.77;1.13;;;;;;;9.87;65.67;99321.91;4884705;29;20211;-78
2022/01/30 10:01:41;;;;;;;4.53;1.40;;;;;;;9.88;65.01;99314.72;4884743;29;20663;-78
2022/01/30 10:04:09;;;;;;;2.77;1.20;;;;;;;9.63;66.60;99328.13;4869706;29;20197;-78
2022/01/30 10:07:02;;;;;;;3.27;1.10;;;;;;;9.79;65.07;99308.00;4884328;29;20256;-78
2022/01/30 10:09:32;;;;;;;3.10;1.10;;;;;;;9.80;65.58;99347.13;4885053;29;20275;-78
2022/01/30 10:12:19;;;;;;;4.83;1.13;;;;;;;9.73;65.68;99347.16;4869192;29;20210;-78
2022/01/30 10:14:59;;;;;;;2.80;1.10;;;;;;;9.82;65.37;99347.69;4869954;29;20270;-78
2022/01/30 10:17:28;;;;;;;2.20;1.10;;;;;;;9.81;61.42;99317.44;4869003;29;20183;-78
2022/01/30 10:20:09;;;;;;;3.47;1.30;;;;;;;9.98;60.69;99326.53;4901003;29;20279;-78
2022/01/30 10:23:01;;;;;;;3.40;1.43;;;;;;;9.64;57.11;99353.84;4869228;29;20198;-78
2022/01/30 10:25:39;;;;;;;2.43;1.10;;;;;;;9.70;55.63;99364.47;4884625;29;20252;-81
2022/01/30 10:28:09;;;;;;;4.23;1.00;;;;;;;10.05;56.76;99345.19;4884375;29;20183;-78
2022/01/30 10:30:47;;;;;;;3.43;1.33;;;;;;;10.10;56.03;99356.03;4884420;29;20188;-80
2022/01/30 10:33:16;;;;;;;4.40;1.77;;;;;;;10.13;55.20;99372.47;4868701;29;20206;-78
2022/01/30 10:35:46;;;;;;;3.10;1.13;;;;;;;9.85;52.94;99320.47;4883988;29;20196;-80
2022/01/30 10:38:18;;;;;;;6.00;1.20;;;;;;;9.41;53.70;99345.63;4883150;29;20270;-81
2022/01/30 10:40:54;;;;;;;2.80;1.20;;;;;;;9.63;55.81;99357.53;4883698;29;20219;-81
2022/01/30 10:43:21;;;;;;;3.47;1.33;;;;;;;9.62;54.36;99362.06;4883805;29;20196;-81
2022/01/30 10:45:48;;;;;;;3.20;1.20;;;;;;;9.52;55.61;99375.13;4868328;29;20204;-81
2022/01/30 10:48:17;;;;;;;3.47;1.20;;;;;;;9.34;52.31;99347.50;4883855;29;20610;-81
2022/01/30 10:50:47;;;;;;;5.43;1.27;;;;;;;9.33;52.83;99370.78;4868428;29;20286;-81
2022/01/30 10:53:22;;;;;;;5.87;1.10;;;;;;;9.24;51.97;99345.31;4884355;29;20195;-81
2022/01/30 10:55:50;;;;;;;4.33;1.33;;;;;;;9.17;52.75;99380.13;4868434;29;20191;-81
2022/01/30 10:58:21;;;;;;;3.60;1.30;;;;;;;9.11;52.45;99354.25;4868134;29;20207;-81
2022/01/30 11:00:53;;;;;;;4.23;1.40;;;;;;;9.11;53.37;99350.78;4883607;29;20279;-79
2022/01/30 11:03:40;;;;;;;2.63;1.17;;;;;;;9.23;54.66;99354.41;4868514;29;20175;-81
2022/01/30 11:06:11;;;;;;;3.67;1.20;;;;;;;8.97;58.92;99375.94;4868419;29;20211;-81
2022/01/30 11:08:41;;;;;;;3.37;1.27;;;;;;;8.89;57.34;99318.25;4883949;29;20663;-78
2022/01/30 11:19:24;;;;;;;4.27;1.20;;;;;;;8.43;59.44;99366.59;4887808;29;20223;-81
2022/01/30 11:21:59;;;;;;;3.70;1.20;;;;;;;8.40;61.13;99365.16;4867744;29;20675;-81
2022/01/30 11:24:27;;;;;;;2.23;1.03;;;;;;;8.37;59.80;99332.72;4883079;29;20231;-81
2022/01/30 11:26:54;;;;;;;4.97;1.40;;;;;;;8.64;61.28;99357.44;4867900;29;20194;-80
2022/01/30 11:29:21;;;;;;;3.63;1.20;;;;;;;8.65;60.85;99335.88;4867516;29;20229;-81
2022/01/30 11:31:49;;;;;;;3.97;1.27;;;;;;;8.75;56.21;99354.91;4852258;29;20629;-80
2022/01/30 11:34:16;;;;;;;3.13;1.27;;;;;;;8.76;54.10;99351.22;4883042;29;20254;-81
2022/01/30 11:36:48;;;;;;;3.97;1.13;;;;;;;8.65;52.06;99359.06;4880930;29;20290;-80
2022/01/30 11:39:18;;;;;;;2.80;1.10;;;;;;;8.82;52.26;99341.50;4867456;29;20219;-80
2022/01/30 11:42:06;;;;;;;5.43;1.60;;;;;;;8.77;50.66;99322.66;4867978;29;20238;-81
2022/01/30 11:44:33;;;;;;;3.43;1.17;;;;;;;8.72;50.00;99307.28;4867265;29;20206;-80
2022/01/30 11:47:03;;;;;;;3.50;1.30;;;;;;;8.71;48.61;99344.88;4867259;29;20708;-81
2022/01/30 11:49:42;;;;;;;4.13;1.10;;;;;;;8.45;50.25;99337.81;4882649;29;20196;-80
2022/01/30 11:52:14;;;;;;;2.87;1.00;;;;;;;8.59;49.94;99336.72;4867485;29;20194;-81
2022/01/30 11:54:40;;;;;;;4.07;1.20;;;;;;;8.75;49.32;99335.41;4867319;29;20199;-80
2022/01/30 11:57:22;;;;;;;4.33;1.13;;;;;;;8.77;47.92;99306.63;4882607;29;20199;-80
2022/01/30 11:59:57;;;;;;;4.07;1.10;;;;;;;8.88;48.35;99340.66;4882378;29;20516;-80
2022/01/30 12:02:24;;;;;;;3.10;1.03;;;;;;;8.77;47.77;99301.28;4867243;29;20189;-81
2022/01/30 12:04:54;;;;;;;4.57;1.40;;;;;;;8.95;47.08;99304.03;4899114;29;20282;-81
2022/01/30 12:07:30;;;;;;;2.97;1.10;;;;;;;9.14;47.65;99331.66;4866730;29;20237;-81
2022/01/30 12:10:16;;;;;;;3.10;1.20;;;;;;;9.28;46.93;99323.28;4882338;29;20301;-81
2022/01/30 12:12:53;;;;;;;4.13;1.27;;;;;;;9.46;45.57;99321.72;4895145;29;20230;-81
2022/01/30 12:15:38;;;;;;;3.47;0.97;;;;;;;9.49;46.28;99303.38;4882198;29;20186;-82
2022/01/30 12:18:06;;;;;;;3.47;1.27;;;;;;;9.83;45.66;99306.53;4894758;29;20540;-81
2022/01/30 12:21:00;;;;;;;4.43;1.27;;;;;;;10.09;45.46;99292.84;4885410;29;20199;-81
2022/01/30 12:23:32;;;;;;;4.83;1.07;;;;;;;9.97;43.75;99300.81;4900832;29;20232;-81
2022/01/30 12:26:05;;;;;;;4.07;1.20;;;;;;;10.39;44.42;99308.97;4901110;29;20192;-80
2022/01/30 12:28:46;;;;;;;3.10;1.60;;;;;;;10.42;42.06;99295.94;4885931;29;20190;-80
2022/01/30 12:31:34;;;;;;;2.50;0.90;;;;;;;10.52;42.70;99296.22;4900650;29;20237;-80
2022/01/30 12:34:02;;;;;;;2.23;1.10;;;;;;;10.61;43.72;99294.03;4900653;29;20187;-80
2022/01/30 12:36:31;;;;;;;3.60;1.57;;;;;;;10.40;42.19;99292.69;4901040;29;20273;-79
2022/01/30 12:39:06;;;;;;;3.73;1.23;;;;;;;10.21;42.78;99301.78;4885012;29;20309;-79
2022/01/30 12:41:34;;;;;;;4.40;1.30;;;;;;;10.11;43.78;99328.22;4885203;29;20197;-80
2022/01/30 12:44:12;;;;;;;2.73;1.37;;;;;;;9.67;43.71;99338.16;4869949;29;20609;-80
2022/01/30 12:46:45;;;;;;;3.27;1.30;;;;;;;9.43;44.86;99338.16;4899098;29;20452;-80
2022/01/30 12:49:14;;;;;;;3.07;1.37;;;;;;;9.42;43.55;99326.69;4883297;29;20197;-80
2022/01/30 12:51:48;;;;;;;3.87;1.20;;;;;;;9.31;43.47;99351.44;4900250;29;20289;-80
2022/01/30 12:54:16;;;;;;;4.50;1.30;;;;;;;9.10;44.17;99352.63;4885579;29;20198;-80
2022/01/30 12:56:44;;;;;;;2.60;0.93;;;;;;;9.05;44.97;99360.47;4869741;29;20243;-79
2022/01/30 12:59:13;;;;;;;6.30;1.10;;;;;;;8.89;44.00;99317.44;4866121;29;20219;-80
2022/01/30 13:01:47;;;;;;;3.97;1.13;;;;;;;8.88;43.62;99345.19;4886294;29;20197;-80
2022/01/30 13:04:20;;;;;;;3.40;1.30;;;;;;;9.03;44.93;99361.72;4872663;29;20182;-79